sensor_id;sensor_type;location;lat;lon;timestamp;temperature;humidity
19538;DHT22;9914;51.008;4.300;2023-09-12T00:01:08;21.40;99.90
19538;DHT22;9914;51.008;4.300;2023-09-12T00:03:34;21.40;99.90
19538;DHT22;9914;51.008;4.300;2023-09-12T00:06:01;21.40;99.90
19538;DHT22;9914;51.008;4.300;2023-09-12T00:08:28;21.40;99.90
19538;DHT22;9914;51.008;4.300;2023-09-12T00:11:07;21.40;99.90
19538;DHT22;9914;51.008;4.300;2023-09-12T00:13:37;21.50;99.90
19538;DHT22;9914;51.008;4.300;2023-09-12T00:16:03;21.40;99.90
19538;DHT22;9914;51.008;4.300;2023-09-12T00:18:30;21.40;99.90
19538;DHT22;9914;51.008;4.300;2023-09-12T00:20:56;21.40;99.90
19538;DHT22;9914;51.008;4.300;2023-09-12T00:23:22;21.40;99.90
19538;DHT22;9914;51.008;4.300;2023-09-12T00:25:52;21.50;99.90
19538;DHT22;9914;51.008;4.300;2023-09-12T00:28:18;21.50;99.90
19538;DHT22;9914;51.008;4.300;2023-09-12T00:30:44;21.50;99.90
19538;DHT22;9914;51.008;4.300;2023-09-12T00:33:10;21.50;99.90
19538;DHT22;9914;51.008;4.300;2023-09-12T00:35:35;21.40;99.90
19538;DHT22;9914;51.008;4.300;2023-09-12T00:38:01;21.50;99.90
19538;DHT22;9914;51.008;4.300;2023-09-12T00:40:27;21.70;99.90
19538;DHT22;9914;51.008;4.300;2023-09-12T00:42:52;21.60;99.90
19538;DHT22;9914;51.008;4.300;2023-09-12T00:45:18;21.60;99.90
19538;DHT22;9914;51.008;4.300;2023-09-12T00:47:46;21.60;99.90
19538;DHT22;9914;51.008;4.300;2023-09-12T00:50:13;21.70;99.90
19538;DHT22;9914;51.008;4.300;2023-09-12T00:52:40;21.60;99.90
19538;DHT22;9914;51.008;4.300;2023-09-12T00:55:07;21.60;99.90
19538;DHT22;9914;51.008;4.300;2023-09-12T00:57:34;21.50;99.90
19538;DHT22;9914;51.008;4.300;2023-09-12T01:00:02;21.60;99.90
19538;DHT22;9914;51.008;4.300;2023-09-12T01:02:40;21.50;99.90
19538;DHT22;9914;51.008;4.300;2023-09-12T01:05:07;21.50;99.90
19538;DHT22;9914;51.008;4.300;2023-09-12T01:07:34;21.50;99.90
19538;DHT22;9914;51.008;4.300;2023-09-12T01:10:00;21.60;99.90
19538;DHT22;9914;51.008;4.300;2023-09-12T01:12:27;21.70;99.90
19538;DHT22;9914;51.008;4.300;2023-09-12T01:14:53;21.70;99.90
19538;DHT22;9914;51.008;4.300;2023-09-12T01:17:18;21.70;99.90
19538;DHT22;9914;51.008;4.300;2023-09-12T01:19:44;21.70;99.90
19538;DHT22;9914;51.008;4.300;2023-09-12T01:22:55;21.80;99.90
19538;DHT22;9914;51.008;4.300;2023-09-12T01:27:51;21.80;99.90
19538;DHT22;9914;51.008;4.300;2023-09-12T01:30:20;21.70;99.90
19538;DHT22;9914;51.008;4.300;2023-09-12T01:32:47;21.70;99.90
19538;DHT22;9914;51.008;4.300;2023-09-12T01:35:13;21.70;99.90
19538;DHT22;9914;51.008;4.300;2023-09-12T01:37:39;21.80;99.90
19538;DHT22;9914;51.008;4.300;2023-09-12T01:40:06;21.80;99.90
19538;DHT22;9914;51.008;4.300;2023-09-12T01:42:44;21.70;99.90
19538;DHT22;9914;51.008;4.300;2023-09-12T01:45:13;21.70;99.90
19538;DHT22;9914;51.008;4.300;2023-09-12T01:47:41;21.70;99.90
19538;DHT22;9914;51.008;4.300;2023-09-12T01:50:09;21.70;99.90
19538;DHT22;9914;51.008;4.300;2023-09-12T01:52:38;21.70;99.90
19538;DHT22;9914;51.008;4.300;2023-09-12T01:55:05;21.70;99.90
19538;DHT22;9914;51.008;4.300;2023-09-12T01:57:32;21.60;99.90
19538;DHT22;9914;51.008;4.300;2023-09-12T01:59:58;21.50;99.90
19538;DHT22;9914;51.008;4.300;2023-09-12T02:02:24;21.40;99.90
19538;DHT22;9914;51.008;4.300;2023-09-12T02:07:44;21.40;99.90
19538;DHT22;9914;51.008;4.300;2023-09-12T02:10:10;21.50;99.90
19538;DHT22;9914;51.008;4.300;2023-09-12T02:12:36;21.50;99.90
19538;DHT22;9914;51.008;4.300;2023-09-12T02:15:03;21.60;99.90
19538;DHT22;9914;51.008;4.300;2023-09-12T02:17:29;21.60;99.90
19538;DHT22;9914;51.008;4.300;2023-09-12T02:19:54;21.70;99.90
19538;DHT22;9914;51.008;4.300;2023-09-12T02:22:20;21.70;99.90
19538;DHT22;9914;51.008;4.300;2023-09-12T02:24:46;21.60;99.90
19538;DHT22;9914;51.008;4.300;2023-09-12T02:27:11;21.60;99.90
19538;DHT22;9914;51.008;4.300;2023-09-12T02:29:39;21.50;99.90
19538;DHT22;9914;51.008;4.300;2023-09-12T02:32:05;21.60;99.90
19538;DHT22;9914;51.008;4.300;2023-09-12T02:34:31;21.60;99.90
19538;DHT22;9914;51.008;4.300;2023-09-12T02:36:57;21.60;99.90
19538;DHT22;9914;51.008;4.300;2023-09-12T02:39:23;21.50;99.90
19538;DHT22;9914;51.008;4.300;2023-09-12T02:41:48;21.30;99.90
19538;DHT22;9914;51.008;4.300;2023-09-12T02:44:14;21.20;99.90
19538;DHT22;9914;51.008;4.300;2023-09-12T02:46:40;21.20;99.90
19538;DHT22;9914;51.008;4.300;2023-09-12T02:49:05;21.20;99.90
19538;DHT22;9914;51.008;4.300;2023-09-12T02:51:31;21.30;99.90
19538;DHT22;9914;51.008;4.300;2023-09-12T02:53:57;21.30;99.90
19538;DHT22;9914;51.008;4.300;2023-09-12T02:56:22;21.30;99.90
19538;DHT22;9914;51.008;4.300;2023-09-12T02:58:48;21.30;99.90
19538;DHT22;9914;51.008;4.300;2023-09-12T03:01:19;21.30;99.90
19538;DHT22;9914;51.008;4.300;2023-09-12T03:03:48;21.30;99.90
19538;DHT22;9914;51.008;4.300;2023-09-12T03:06:14;21.30;99.90
19538;DHT22;9914;51.008;4.300;2023-09-12T03:08:41;21.40;99.90
19538;DHT22;9914;51.008;4.300;2023-09-12T03:11:06;21.40;99.90
19538;DHT22;9914;51.008;4.300;2023-09-12T03:13:34;21.30;99.90
19538;DHT22;9914;51.008;4.300;2023-09-12T03:16:00;21.30;99.90
19538;DHT22;9914;51.008;4.300;2023-09-12T03:18:26;21.40;99.90
19538;DHT22;9914;51.008;4.300;2023-09-12T03:20:52;21.40;99.90
19538;DHT22;9914;51.008;4.300;2023-09-12T03:23:19;21.50;99.90
19538;DHT22;9914;51.008;4.300;2023-09-12T03:25:45;21.40;99.90
19538;DHT22;9914;51.008;4.300;2023-09-12T03:28:10;21.40;99.90
19538;DHT22;9914;51.008;4.300;2023-09-12T03:30:37;21.50;99.90
19538;DHT22;9914;51.008;4.300;2023-09-12T03:33:03;21.40;99.90
19538;DHT22;9914;51.008;4.300;2023-09-12T03:35:30;21.40;99.90
19538;DHT22;9914;51.008;4.300;2023-09-12T03:37:56;21.40;99.90
19538;DHT22;9914;51.008;4.300;2023-09-12T03:40:22;21.40;99.90
19538;DHT22;9914;51.008;4.300;2023-09-12T03:42:48;21.40;99.90
19538;DHT22;9914;51.008;4.300;2023-09-12T03:45:14;21.30;99.90
19538;DHT22;9914;51.008;4.300;2023-09-12T03:47:39;21.40;99.90
19538;DHT22;9914;51.008;4.300;2023-09-12T03:50:06;21.30;99.90
19538;DHT22;9914;51.008;4.300;2023-09-12T03:52:31;21.20;99.90
19538;DHT22;9914;51.008;4.300;2023-09-12T03:54:57;21.10;99.90
19538;DHT22;9914;51.008;4.300;2023-09-12T03:57:23;21.10;99.90
19538;DHT22;9914;51.008;4.300;2023-09-12T03:59:48;21.30;99.90
19538;DHT22;9914;51.008;4.300;2023-09-12T04:02:14;21.20;99.90
19538;DHT22;9914;51.008;4.300;2023-09-12T04:04:39;21.20;99.90
19538;DHT22;9914;51.008;4.300;2023-09-12T04:07:05;21.20;99.90
19538;DHT22;9914;51.008;4.300;2023-09-12T04:09:31;21.20;99.90
19538;DHT22;9914;51.008;4.300;2023-09-12T04:11:57;21.20;99.90
19538;DHT22;9914;51.008;4.300;2023-09-12T04:14:22;21.20;99.90
19538;DHT22;9914;51.008;4.300;2023-09-12T04:16:48;21.10;99.90
19538;DHT22;9914;51.008;4.300;2023-09-12T04:19:14;21.20;99.90
19538;DHT22;9914;51.008;4.300;2023-09-12T04:21:40;21.20;99.90
19538;DHT22;9914;51.008;4.300;2023-09-12T04:24:06;20.70;99.90
19538;DHT22;9914;51.008;4.300;2023-09-12T04:26:32;20.50;99.90
19538;DHT22;9914;51.008;4.300;2023-09-12T04:28:58;20.60;99.90
19538;DHT22;9914;51.008;4.300;2023-09-12T04:31:24;20.70;99.90
19538;DHT22;9914;51.008;4.300;2023-09-12T04:33:54;20.60;99.90
19538;DHT22;9914;51.008;4.300;2023-09-12T04:36:20;20.50;99.90
19538;DHT22;9914;51.008;4.300;2023-09-12T04:38:46;20.40;99.90
19538;DHT22;9914;51.008;4.300;2023-09-12T04:41:13;20.30;99.90
19538;DHT22;9914;51.008;4.300;2023-09-12T04:43:43;20.20;99.90
19538;DHT22;9914;51.008;4.300;2023-09-12T04:46:11;20.30;99.90
19538;DHT22;9914;51.008;4.300;2023-09-12T04:48:37;20.40;99.90
19538;DHT22;9914;51.008;4.300;2023-09-12T04:51:03;20.60;99.90
19538;DHT22;9914;51.008;4.300;2023-09-12T04:53:29;20.70;99.90
19538;DHT22;9914;51.008;4.300;2023-09-12T04:56:01;20.90;99.90
19538;DHT22;9914;51.008;4.300;2023-09-12T04:58:27;20.80;99.90
19538;DHT22;9914;51.008;4.300;2023-09-12T05:00:54;20.90;99.90
19538;DHT22;9914;51.008;4.300;2023-09-12T05:03:20;20.90;99.90
19538;DHT22;9914;51.008;4.300;2023-09-12T05:05:47;20.90;99.90
19538;DHT22;9914;51.008;4.300;2023-09-12T05:08:13;20.80;99.90
19538;DHT22;9914;51.008;4.300;2023-09-12T05:10:38;20.80;99.90
19538;DHT22;9914;51.008;4.300;2023-09-12T05:13:05;20.70;99.90
19538;DHT22;9914;51.008;4.300;2023-09-12T05:15:30;20.80;99.90
19538;DHT22;9914;51.008;4.300;2023-09-12T05:17:56;20.70;99.90
19538;DHT22;9914;51.008;4.300;2023-09-12T05:20:22;20.60;99.90
19538;DHT22;9914;51.008;4.300;2023-09-12T05:22:47;20.50;99.90
19538;DHT22;9914;51.008;4.300;2023-09-12T05:25:13;20.50;99.90
19538;DHT22;9914;51.008;4.300;2023-09-12T05:27:39;20.50;99.90
19538;DHT22;9914;51.008;4.300;2023-09-12T05:30:05;20.50;99.90
19538;DHT22;9914;51.008;4.300;2023-09-12T05:32:31;20.40;99.90
19538;DHT22;9914;51.008;4.300;2023-09-12T05:34:56;20.40;99.90
19538;DHT22;9914;51.008;4.300;2023-09-12T05:37:22;20.40;99.90
19538;DHT22;9914;51.008;4.300;2023-09-12T05:39:48;20.40;99.90
19538;DHT22;9914;51.008;4.300;2023-09-12T05:42:13;20.40;99.90
19538;DHT22;9914;51.008;4.300;2023-09-12T05:44:46;20.40;99.90
19538;DHT22;9914;51.008;4.300;2023-09-12T05:47:12;20.40;99.90
19538;DHT22;9914;51.008;4.300;2023-09-12T05:49:37;20.40;99.90
19538;DHT22;9914;51.008;4.300;2023-09-12T05:52:03;20.40;99.90
19538;DHT22;9914;51.008;4.300;2023-09-12T05:54:29;20.50;99.90
19538;DHT22;9914;51.008;4.300;2023-09-12T05:56:54;20.40;99.90
19538;DHT22;9914;51.008;4.300;2023-09-12T05:59:20;20.40;99.90
19538;DHT22;9914;51.008;4.300;2023-09-12T06:01:46;20.30;99.90
19538;DHT22;9914;51.008;4.300;2023-09-12T06:04:11;20.30;99.90
19538;DHT22;9914;51.008;4.300;2023-09-12T06:06:37;20.20;99.90
19538;DHT22;9914;51.008;4.300;2023-09-12T06:09:04;20.30;99.90
19538;DHT22;9914;51.008;4.300;2023-09-12T06:11:29;20.40;99.90
19538;DHT22;9914;51.008;4.300;2023-09-12T06:13:56;20.40;99.90
19538;DHT22;9914;51.008;4.300;2023-09-12T06:16:22;20.40;99.90
19538;DHT22;9914;51.008;4.300;2023-09-12T06:18:48;20.50;99.90
19538;DHT22;9914;51.008;4.300;2023-09-12T06:21:14;20.50;99.90
19538;DHT22;9914;51.008;4.300;2023-09-12T06:23:40;20.60;99.90
19538;DHT22;9914;51.008;4.300;2023-09-12T06:26:05;20.70;99.90
19538;DHT22;9914;51.008;4.300;2023-09-12T06:28:31;20.80;99.90
19538;DHT22;9914;51.008;4.300;2023-09-12T06:30:58;20.90;99.90
19538;DHT22;9914;51.008;4.300;2023-09-12T06:33:25;20.90;99.90
19538;DHT22;9914;51.008;4.300;2023-09-12T06:35:52;20.90;99.90
19538;DHT22;9914;51.008;4.300;2023-09-12T06:38:24;20.90;99.90
19538;DHT22;9914;51.008;4.300;2023-09-12T06:40:50;21.00;99.90
19538;DHT22;9914;51.008;4.300;2023-09-12T06:43:16;21.00;99.90
19538;DHT22;9914;51.008;4.300;2023-09-12T06:45:42;21.20;99.90
19538;DHT22;9914;51.008;4.300;2023-09-12T06:48:08;21.40;99.90
19538;DHT22;9914;51.008;4.300;2023-09-12T06:50:34;21.50;99.90
19538;DHT22;9914;51.008;4.300;2023-09-12T06:53:00;21.60;99.90
19538;DHT22;9914;51.008;4.300;2023-09-12T06:55:28;21.60;99.90
19538;DHT22;9914;51.008;4.300;2023-09-12T06:57:54;21.60;99.90
19538;DHT22;9914;51.008;4.300;2023-09-12T07:00:20;21.70;99.90
19538;DHT22;9914;51.008;4.300;2023-09-12T07:02:46;21.70;99.90
19538;DHT22;9914;51.008;4.300;2023-09-12T07:05:12;21.80;99.90
19538;DHT22;9914;51.008;4.300;2023-09-12T07:07:37;22.00;99.90
19538;DHT22;9914;51.008;4.300;2023-09-12T07:10:03;22.00;99.90
19538;DHT22;9914;51.008;4.300;2023-09-12T07:12:29;22.00;99.90
19538;DHT22;9914;51.008;4.300;2023-09-12T07:14:55;22.10;99.90
19538;DHT22;9914;51.008;4.300;2023-09-12T07:17:21;22.30;99.90
19538;DHT22;9914;51.008;4.300;2023-09-12T07:19:47;22.30;99.90
19538;DHT22;9914;51.008;4.300;2023-09-12T07:22:13;22.40;99.90
19538;DHT22;9914;51.008;4.300;2023-09-12T07:24:38;22.40;99.90
19538;DHT22;9914;51.008;4.300;2023-09-12T07:27:04;22.40;99.90
19538;DHT22;9914;51.008;4.300;2023-09-12T07:29:31;22.30;99.90
19538;DHT22;9914;51.008;4.300;2023-09-12T07:31:57;22.20;99.90
19538;DHT22;9914;51.008;4.300;2023-09-12T07:34:24;22.30;99.90
19538;DHT22;9914;51.008;4.300;2023-09-12T07:36:49;22.30;99.90
19538;DHT22;9914;51.008;4.300;2023-09-12T07:39:17;22.30;99.90
19538;DHT22;9914;51.008;4.300;2023-09-12T07:41:43;22.20;99.90
19538;DHT22;9914;51.008;4.300;2023-09-12T07:44:08;22.10;99.90
19538;DHT22;9914;51.008;4.300;2023-09-12T07:46:37;22.10;99.90
19538;DHT22;9914;51.008;4.300;2023-09-12T07:49:03;22.10;99.90
19538;DHT22;9914;51.008;4.300;2023-09-12T07:51:29;21.90;99.90
19538;DHT22;9914;51.008;4.300;2023-09-12T07:53:54;22.00;99.90
19538;DHT22;9914;51.008;4.300;2023-09-12T07:56:20;21.90;99.90
19538;DHT22;9914;51.008;4.300;2023-09-12T07:58:45;22.00;99.90
19538;DHT22;9914;51.008;4.300;2023-09-12T08:01:11;21.90;99.90
19538;DHT22;9914;51.008;4.300;2023-09-12T08:03:38;21.90;99.90
19538;DHT22;9914;51.008;4.300;2023-09-12T08:06:05;21.90;99.90
19538;DHT22;9914;51.008;4.300;2023-09-12T08:08:31;22.00;99.90
19538;DHT22;9914;51.008;4.300;2023-09-12T08:10:57;22.00;99.90
19538;DHT22;9914;51.008;4.300;2023-09-12T08:13:26;22.10;99.90
19538;DHT22;9914;51.008;4.300;2023-09-12T08:15:53;22.10;99.90
19538;DHT22;9914;51.008;4.300;2023-09-12T08:18:18;22.20;99.90
19538;DHT22;9914;51.008;4.300;2023-09-12T08:20:45;22.30;99.90
19538;DHT22;9914;51.008;4.300;2023-09-12T08:23:12;22.20;99.90
19538;DHT22;9914;51.008;4.300;2023-09-12T08:25:39;22.30;99.90
19538;DHT22;9914;51.008;4.300;2023-09-12T08:28:06;22.40;99.90
19538;DHT22;9914;51.008;4.300;2023-09-12T08:30:31;22.50;99.90
19538;DHT22;9914;51.008;4.300;2023-09-12T08:32:58;22.50;99.90
19538;DHT22;9914;51.008;4.300;2023-09-12T08:35:24;22.50;99.90
19538;DHT22;9914;51.008;4.300;2023-09-12T08:37:52;22.40;99.90
19538;DHT22;9914;51.008;4.300;2023-09-12T08:40:17;22.40;99.90
19538;DHT22;9914;51.008;4.300;2023-09-12T08:42:44;22.40;99.90
19538;DHT22;9914;51.008;4.300;2023-09-12T08:45:14;22.40;99.90
19538;DHT22;9914;51.008;4.300;2023-09-12T08:47:51;22.40;99.90
19538;DHT22;9914;51.008;4.300;2023-09-12T08:50:17;22.50;99.90
19538;DHT22;9914;51.008;4.300;2023-09-12T08:52:45;22.50;99.90
19538;DHT22;9914;51.008;4.300;2023-09-12T08:55:11;22.60;99.90
19538;DHT22;9914;51.008;4.300;2023-09-12T08:57:40;23.00;99.90
19538;DHT22;9914;51.008;4.300;2023-09-12T09:00:07;23.20;99.90
19538;DHT22;9914;51.008;4.300;2023-09-12T09:02:39;23.40;99.90
19538;DHT22;9914;51.008;4.300;2023-09-12T09:05:06;23.60;99.90
19538;DHT22;9914;51.008;4.300;2023-09-12T09:07:38;23.60;99.90
19538;DHT22;9914;51.008;4.300;2023-09-12T09:10:06;23.70;99.90
19538;DHT22;9914;51.008;4.300;2023-09-12T09:12:35;23.90;99.90
19538;DHT22;9914;51.008;4.300;2023-09-12T09:15:21;24.00;99.90
19538;DHT22;9914;51.008;4.300;2023-09-12T09:17:48;24.10;99.90
19538;DHT22;9914;51.008;4.300;2023-09-12T09:20:29;24.00;99.90
19538;DHT22;9914;51.008;4.300;2023-09-12T09:23:03;24.00;99.90
19538;DHT22;9914;51.008;4.300;2023-09-12T09:25:33;24.00;99.90
19538;DHT22;9914;51.008;4.300;2023-09-12T09:28:02;24.00;99.90
19538;DHT22;9914;51.008;4.300;2023-09-12T09:30:50;24.10;99.90
19538;DHT22;9914;51.008;4.300;2023-09-12T09:33:17;24.20;99.90
19538;DHT22;9914;51.008;4.300;2023-09-12T09:35:45;24.20;99.90
19538;DHT22;9914;51.008;4.300;2023-09-12T09:38:11;24.50;99.90
19538;DHT22;9914;51.008;4.300;2023-09-12T09:40:43;24.50;99.90
19538;DHT22;9914;51.008;4.300;2023-09-12T09:43:09;24.70;99.90
19538;DHT22;9914;51.008;4.300;2023-09-12T09:45:46;25.10;99.90
19538;DHT22;9914;51.008;4.300;2023-09-12T09:48:21;25.40;99.90
19538;DHT22;9914;51.008;4.300;2023-09-12T09:50:47;25.50;99.90
19538;DHT22;9914;51.008;4.300;2023-09-12T09:53:13;25.70;99.90
19538;DHT22;9914;51.008;4.300;2023-09-12T09:55:39;25.90;99.90
19538;DHT22;9914;51.008;4.300;2023-09-12T09:58:08;26.20;99.90
19538;DHT22;9914;51.008;4.300;2023-09-12T10:00:36;26.30;99.90
19538;DHT22;9914;51.008;4.300;2023-09-12T10:03:04;26.40;99.90
19538;DHT22;9914;51.008;4.300;2023-09-12T10:05:32;26.40;99.90
19538;DHT22;9914;51.008;4.300;2023-09-12T10:07:59;26.40;99.90
19538;DHT22;9914;51.008;4.300;2023-09-12T10:10:29;26.50;99.90
19538;DHT22;9914;51.008;4.300;2023-09-12T10:12:57;26.50;99.90
19538;DHT22;9914;51.008;4.300;2023-09-12T10:15:23;26.60;99.90
19538;DHT22;9914;51.008;4.300;2023-09-12T10:17:58;26.80;99.90
19538;DHT22;9914;51.008;4.300;2023-09-12T10:20:42;26.70;99.90
19538;DHT22;9914;51.008;4.300;2023-09-12T10:23:45;26.50;99.90
19538;DHT22;9914;51.008;4.300;2023-09-12T10:26:13;26.70;99.90
19538;DHT22;9914;51.008;4.300;2023-09-12T10:28:41;26.80;99.90
19538;DHT22;9914;51.008;4.300;2023-09-12T10:31:08;26.90;99.90
19538;DHT22;9914;51.008;4.300;2023-09-12T10:33:35;27.00;99.90
19538;DHT22;9914;51.008;4.300;2023-09-12T10:36:03;27.10;99.90
19538;DHT22;9914;51.008;4.300;2023-09-12T10:38:32;27.30;99.90
19538;DHT22;9914;51.008;4.300;2023-09-12T10:41:00;27.40;99.90
19538;DHT22;9914;51.008;4.300;2023-09-12T10:43:26;27.40;99.90
19538;DHT22;9914;51.008;4.300;2023-09-12T10:45:53;27.10;99.90
19538;DHT22;9914;51.008;4.300;2023-09-12T10:48:19;27.20;99.90
19538;DHT22;9914;51.008;4.300;2023-09-12T10:50:45;27.20;99.90
19538;DHT22;9914;51.008;4.300;2023-09-12T10:53:12;27.20;99.90
19538;DHT22;9914;51.008;4.300;2023-09-12T10:55:38;27.10;99.90
19538;DHT22;9914;51.008;4.300;2023-09-12T10:58:06;27.00;99.90
19538;DHT22;9914;51.008;4.300;2023-09-12T11:00:32;27.20;99.90
19538;DHT22;9914;51.008;4.300;2023-09-12T11:05:54;27.50;99.90
19538;DHT22;9914;51.008;4.300;2023-09-12T11:08:20;26.80;99.90
19538;DHT22;9914;51.008;4.300;2023-09-12T11:11:18;26.50;99.90
19538;DHT22;9914;51.008;4.300;2023-09-12T11:13:45;26.60;99.90
19538;DHT22;9914;51.008;4.300;2023-09-12T11:16:16;27.20;99.90
19538;DHT22;9914;51.008;4.300;2023-09-12T11:21:48;27.50;99.90
19538;DHT22;9914;51.008;4.300;2023-09-12T11:24:15;27.90;99.90
19538;DHT22;9914;51.008;4.300;2023-09-12T11:26:59;28.00;99.90
19538;DHT22;9914;51.008;4.300;2023-09-12T11:29:30;28.30;99.90
19538;DHT22;9914;51.008;4.300;2023-09-12T11:31:59;28.50;99.90
19538;DHT22;9914;51.008;4.300;2023-09-12T11:34:29;28.10;99.90
19538;DHT22;9914;51.008;4.300;2023-09-12T11:36:58;28.30;99.90
19538;DHT22;9914;51.008;4.300;2023-09-12T11:39:32;28.40;99.90
19538;DHT22;9914;51.008;4.300;2023-09-12T11:41:59;28.40;99.90
19538;DHT22;9914;51.008;4.300;2023-09-12T11:44:26;28.50;99.90
19538;DHT22;9914;51.008;4.300;2023-09-12T11:46:53;28.60;99.90
19538;DHT22;9914;51.008;4.300;2023-09-12T11:49:19;28.70;99.90
19538;DHT22;9914;51.008;4.300;2023-09-12T11:51:53;28.20;99.90
19538;DHT22;9914;51.008;4.300;2023-09-12T11:54:24;27.40;99.90
19538;DHT22;9914;51.008;4.300;2023-09-12T11:56:50;27.80;99.90
19538;DHT22;9914;51.008;4.300;2023-09-12T11:59:22;28.10;99.90
19538;DHT22;9914;51.008;4.300;2023-09-12T12:01:48;28.50;99.90
19538;DHT22;9914;51.008;4.300;2023-09-12T12:04:15;28.10;99.90
19538;DHT22;9914;51.008;4.300;2023-09-12T12:06:41;28.30;99.90
19538;DHT22;9914;51.008;4.300;2023-09-12T12:09:07;27.60;99.90
19538;DHT22;9914;51.008;4.300;2023-09-12T12:11:33;27.90;99.90
19538;DHT22;9914;51.008;4.300;2023-09-12T12:14:11;28.00;99.90
19538;DHT22;9914;51.008;4.300;2023-09-12T12:16:37;28.20;99.90
19538;DHT22;9914;51.008;4.300;2023-09-12T12:19:03;28.40;99.90
19538;DHT22;9914;51.008;4.300;2023-09-12T12:21:29;28.50;99.90
19538;DHT22;9914;51.008;4.300;2023-09-12T12:23:59;28.70;99.90
19538;DHT22;9914;51.008;4.300;2023-09-12T12:26:25;28.80;99.90
19538;DHT22;9914;51.008;4.300;2023-09-12T12:28:52;28.80;99.90
19538;DHT22;9914;51.008;4.300;2023-09-12T12:31:19;28.50;99.90
19538;DHT22;9914;51.008;4.300;2023-09-12T12:33:48;28.70;99.90
19538;DHT22;9914;51.008;4.300;2023-09-12T12:36:14;28.80;99.90
19538;DHT22;9914;51.008;4.300;2023-09-12T12:38:40;28.30;99.90
19538;DHT22;9914;51.008;4.300;2023-09-12T12:41:09;27.40;99.90
19538;DHT22;9914;51.008;4.300;2023-09-12T12:43:34;26.90;99.90
19538;DHT22;9914;51.008;4.300;2023-09-12T12:46:01;26.90;99.90
19538;DHT22;9914;51.008;4.300;2023-09-12T12:48:30;27.70;99.90
19538;DHT22;9914;51.008;4.300;2023-09-12T12:50:56;28.20;99.90
19538;DHT22;9914;51.008;4.300;2023-09-12T12:53:45;28.50;99.90
19538;DHT22;9914;51.008;4.300;2023-09-12T12:56:16;28.70;99.90
19538;DHT22;9914;51.008;4.300;2023-09-12T12:58:59;28.60;99.90
19538;DHT22;9914;51.008;4.300;2023-09-12T13:01:28;28.50;99.90
19538;DHT22;9914;51.008;4.300;2023-09-12T13:03:54;28.80;99.90
19538;DHT22;9914;51.008;4.300;2023-09-12T13:06:22;29.00;99.90
19538;DHT22;9914;51.008;4.300;2023-09-12T13:08:48;29.30;99.90
19538;DHT22;9914;51.008;4.300;2023-09-12T13:11:15;29.40;99.90
19538;DHT22;9914;51.008;4.300;2023-09-12T13:13:42;28.60;99.90
19538;DHT22;9914;51.008;4.300;2023-09-12T13:16:09;28.70;99.90
19538;DHT22;9914;51.008;4.300;2023-09-12T13:18:37;28.70;99.90
19538;DHT22;9914;51.008;4.300;2023-09-12T13:21:04;28.70;99.90
19538;DHT22;9914;51.008;4.300;2023-09-12T13:23:30;28.30;99.90
19538;DHT22;9914;51.008;4.300;2023-09-12T13:25:56;28.20;99.90
19538;DHT22;9914;51.008;4.300;2023-09-12T13:28:23;28.00;99.90
19538;DHT22;9914;51.008;4.300;2023-09-12T13:30:51;27.60;99.90
19538;DHT22;9914;51.008;4.300;2023-09-12T13:33:17;27.80;99.90
19538;DHT22;9914;51.008;4.300;2023-09-12T13:35:42;27.60;99.90
19538;DHT22;9914;51.008;4.300;2023-09-12T13:38:08;27.00;99.90
19538;DHT22;9914;51.008;4.300;2023-09-12T13:40:37;27.30;99.90
19538;DHT22;9914;51.008;4.300;2023-09-12T13:43:06;27.50;99.90
19538;DHT22;9914;51.008;4.300;2023-09-12T13:45:33;27.40;99.90
19538;DHT22;9914;51.008;4.300;2023-09-12T13:47:59;26.90;99.90
19538;DHT22;9914;51.008;4.300;2023-09-12T13:50:26;26.90;99.90
19538;DHT22;9914;51.008;4.300;2023-09-12T13:52:54;26.70;99.90
19538;DHT22;9914;51.008;4.300;2023-09-12T13:55:21;26.10;99.90
19538;DHT22;9914;51.008;4.300;2023-09-12T13:57:47;25.80;99.90
19538;DHT22;9914;51.008;4.300;2023-09-12T14:00:13;25.60;99.90
19538;DHT22;9914;51.008;4.300;2023-09-12T14:02:39;25.50;99.90
19538;DHT22;9914;51.008;4.300;2023-09-12T14:05:05;26.10;99.90
19538;DHT22;9914;51.008;4.300;2023-09-12T14:07:36;26.60;99.90
19538;DHT22;9914;51.008;4.300;2023-09-12T14:10:03;27.10;99.90
19538;DHT22;9914;51.008;4.300;2023-09-12T14:12:29;27.40;99.90
19538;DHT22;9914;51.008;4.300;2023-09-12T14:14:55;27.30;99.90
19538;DHT22;9914;51.008;4.300;2023-09-12T14:17:21;27.40;99.90
19538;DHT22;9914;51.008;4.300;2023-09-12T14:19:48;27.50;99.90
19538;DHT22;9914;51.008;4.300;2023-09-12T14:22:13;27.60;99.90
19538;DHT22;9914;51.008;4.300;2023-09-12T14:24:39;27.70;99.90
19538;DHT22;9914;51.008;4.300;2023-09-12T14:27:05;27.70;99.90
19538;DHT22;9914;51.008;4.300;2023-09-12T14:29:31;27.70;99.90
19538;DHT22;9914;51.008;4.300;2023-09-12T14:32:03;27.80;99.90
19538;DHT22;9914;51.008;4.300;2023-09-12T14:34:29;27.70;99.90
19538;DHT22;9914;51.008;4.300;2023-09-12T14:36:57;27.50;99.90
19538;DHT22;9914;51.008;4.300;2023-09-12T14:39:23;27.40;99.90
19538;DHT22;9914;51.008;4.300;2023-09-12T14:41:50;27.30;99.90
19538;DHT22;9914;51.008;4.300;2023-09-12T14:44:24;27.20;99.90
19538;DHT22;9914;51.008;4.300;2023-09-12T14:46:50;27.10;99.90
19538;DHT22;9914;51.008;4.300;2023-09-12T14:49:16;27.00;99.90
19538;DHT22;9914;51.008;4.300;2023-09-12T14:51:41;26.90;99.90
19538;DHT22;9914;51.008;4.300;2023-09-12T14:54:07;26.90;99.90
19538;DHT22;9914;51.008;4.300;2023-09-12T14:56:34;26.90;99.90
19538;DHT22;9914;51.008;4.300;2023-09-12T14:59:00;27.00;99.90
19538;DHT22;9914;51.008;4.300;2023-09-12T15:01:27;27.00;99.90
19538;DHT22;9914;51.008;4.300;2023-09-12T15:03:53;27.00;99.90
19538;DHT22;9914;51.008;4.300;2023-09-12T15:06:20;26.90;99.90
19538;DHT22;9914;51.008;4.300;2023-09-12T15:08:46;26.90;99.90
19538;DHT22;9914;51.008;4.300;2023-09-12T15:11:12;26.90;99.90
19538;DHT22;9914;51.008;4.300;2023-09-12T15:13:37;26.90;99.90
19538;DHT22;9914;51.008;4.300;2023-09-12T15:16:04;26.90;99.90
19538;DHT22;9914;51.008;4.300;2023-09-12T15:18:30;26.90;99.90
19538;DHT22;9914;51.008;4.300;2023-09-12T15:20:56;26.80;99.90
19538;DHT22;9914;51.008;4.300;2023-09-12T15:23:21;26.80;99.90
19538;DHT22;9914;51.008;4.300;2023-09-12T15:25:49;26.70;99.90
19538;DHT22;9914;51.008;4.300;2023-09-12T15:28:15;26.60;99.90
19538;DHT22;9914;51.008;4.300;2023-09-12T15:30:41;26.50;99.90
19538;DHT22;9914;51.008;4.300;2023-09-12T15:33:07;26.50;99.90
19538;DHT22;9914;51.008;4.300;2023-09-12T15:35:33;26.50;99.90
19538;DHT22;9914;51.008;4.300;2023-09-12T15:37:58;26.50;99.90
19538;DHT22;9914;51.008;4.300;2023-09-12T15:40:24;26.50;99.90
19538;DHT22;9914;51.008;4.300;2023-09-12T15:42:50;26.50;99.90
19538;DHT22;9914;51.008;4.300;2023-09-12T15:45:15;26.50;99.90
19538;DHT22;9914;51.008;4.300;2023-09-12T15:47:43;26.40;99.90
19538;DHT22;9914;51.008;4.300;2023-09-12T15:50:09;26.40;99.90
19538;DHT22;9914;51.008;4.300;2023-09-12T15:52:35;26.50;99.90
19538;DHT22;9914;51.008;4.300;2023-09-12T15:55:06;26.50;99.90
19538;DHT22;9914;51.008;4.300;2023-09-12T15:57:33;26.40;99.90